sensor_id;sensor_type;location;lat;lon;timestamp;P1;durP1;ratioP1;P2;durP2;ratioP2
34585;SDS011;20816;50.950;11.108;2023-04-25T00:01:50;2.03;;;1.47;;
34585;SDS011;20816;50.950;11.108;2023-04-25T00:04:17;2.20;;;1.77;;
34585;SDS011;20816;50.950;11.108;2023-04-25T00:06:44;2.13;;;1.37;;
34585;SDS011;20816;50.950;11.108;2023-04-25T00:09:11;2.93;;;1.73;;
34585;SDS011;20816;50.950;11.108;2023-04-25T00:11:38;2.70;;;1.90;;
34585;SDS011;20816;50.950;11.108;2023-04-25T00:14:04;2.10;;;1.73;;
34585;SDS011;20816;50.950;11.108;2023-04-25T00:16:33;2.40;;;1.47;;
34585;SDS011;20816;50.950;11.108;2023-04-25T00:19:01;4.60;;;1.33;;
34585;SDS011;20816;50.950;11.108;2023-04-25T00:21:29;7.73;;;1.90;;
34585;SDS011;20816;50.950;11.108;2023-04-25T00:23:57;1.83;;;1.57;;
34585;SDS011;20816;50.950;11.108;2023-04-25T00:26:24;2.07;;;1.20;;
34585;SDS011;20816;50.950;11.108;2023-04-25T00:28:51;3.50;;;1.43;;
34585;SDS011;20816;50.950;11.108;2023-04-25T00:31:18;2.67;;;1.70;;
34585;SDS011;20816;50.950;11.108;2023-04-25T00:33:44;2.73;;;2.00;;
34585;SDS011;20816;50.950;11.108;2023-04-25T00:36:11;4.07;;;2.00;;
34585;SDS011;20816;50.950;11.108;2023-04-25T00:38:38;3.43;;;2.30;;
34585;SDS011;20816;50.950;11.108;2023-04-25T00:41:05;4.33;;;1.53;;
34585;SDS011;20816;50.950;11.108;2023-04-25T00:43:33;2.77;;;1.73;;
34585;SDS011;20816;50.950;11.108;2023-04-25T00:46:02;4.23;;;2.23;;
34585;SDS011;20816;50.950;11.108;2023-04-25T00:48:29;1.83;;;1.73;;
34585;SDS011;20816;50.950;11.108;2023-04-25T00:50:57;4.27;;;2.50;;
34585;SDS011;20816;50.950;11.108;2023-04-25T00:53:25;4.63;;;1.80;;
34585;SDS011;20816;50.950;11.108;2023-04-25T00:55:53;3.87;;;2.57;;
34585;SDS011;20816;50.950;11.108;2023-04-25T00:58:20;7.13;;;2.40;;
34585;SDS011;20816;50.950;11.108;2023-04-25T01:00:48;3.80;;;2.10;;
34585;SDS011;20816;50.950;11.108;2023-04-25T01:03:18;3.20;;;2.67;;
34585;SDS011;20816;50.950;11.108;2023-04-25T01:05:48;6.17;;;2.20;;
34585;SDS011;20816;50.950;11.108;2023-04-25T01:08:16;3.70;;;1.90;;
34585;SDS011;20816;50.950;11.108;2023-04-25T01:10:43;6.83;;;2.40;;
34585;SDS011;20816;50.950;11.108;2023-04-25T01:13:09;3.53;;;2.10;;
34585;SDS011;20816;50.950;11.108;2023-04-25T01:15:36;3.47;;;2.07;;
34585;SDS011;20816;50.950;11.108;2023-04-25T01:18:04;5.07;;;2.50;;
34585;SDS011;20816;50.950;11.108;2023-04-25T01:20:32;3.27;;;1.70;;
34585;SDS011;20816;50.950;11.108;2023-04-25T01:22:59;4.90;;;1.93;;
34585;SDS011;20816;50.950;11.108;2023-04-25T01:25:28;2.37;;;1.80;;
34585;SDS011;20816;50.950;11.108;2023-04-25T01:27:56;7.37;;;2.20;;
34585;SDS011;20816;50.950;11.108;2023-04-25T01:30:25;2.37;;;2.00;;
34585;SDS011;20816;50.950;11.108;2023-04-25T01:32:55;4.83;;;2.30;;
34585;SDS011;20816;50.950;11.108;2023-04-25T01:35:23;3.37;;;2.50;;
34585;SDS011;20816;50.950;11.108;2023-04-25T01:37:50;7.30;;;2.03;;
34585;SDS011;20816;50.950;11.108;2023-04-25T01:40:18;3.37;;;2.37;;
34585;SDS011;20816;50.950;11.108;2023-04-25T01:42:48;3.43;;;2.00;;
34585;SDS011;20816;50.950;11.108;2023-04-25T01:45:15;4.17;;;2.50;;
34585;SDS011;20816;50.950;11.108;2023-04-25T01:47:41;4.53;;;2.33;;
34585;SDS011;20816;50.950;11.108;2023-04-25T01:50:10;3.20;;;2.77;;
34585;SDS011;20816;50.950;11.108;2023-04-25T01:52:37;5.00;;;2.53;;
34585;SDS011;20816;50.950;11.108;2023-04-25T01:55:05;3.50;;;2.23;;
34585;SDS011;20816;50.950;11.108;2023-04-25T01:57:32;5.57;;;2.77;;
34585;SDS011;20816;50.950;11.108;2023-04-25T01:59:59;5.23;;;2.00;;
34585;SDS011;20816;50.950;11.108;2023-04-25T02:02:28;3.47;;;1.97;;
34585;SDS011;20816;50.950;11.108;2023-04-25T02:04:54;2.17;;;1.93;;
34585;SDS011;20816;50.950;11.108;2023-04-25T02:07:22;4.03;;;2.40;;
34585;SDS011;20816;50.950;11.108;2023-04-25T02:09:49;3.67;;;1.90;;
34585;SDS011;20816;50.950;11.108;2023-04-25T02:12:16;3.07;;;1.97;;
34585;SDS011;20816;50.950;11.108;2023-04-25T02:14:42;4.27;;;2.47;;
34585;SDS011;20816;50.950;11.108;2023-04-25T02:17:09;3.27;;;2.13;;
34585;SDS011;20816;50.950;11.108;2023-04-25T02:19:36;3.30;;;2.07;;
34585;SDS011;20816;50.950;11.108;2023-04-25T02:22:03;8.47;;;2.60;;
34585;SDS011;20816;50.950;11.108;2023-04-25T02:24:30;4.53;;;2.17;;
34585;SDS011;20816;50.950;11.108;2023-04-25T02:26:58;3.87;;;2.20;;
34585;SDS011;20816;50.950;11.108;2023-04-25T02:29:24;4.37;;;2.33;;
34585;SDS011;20816;50.950;11.108;2023-04-25T02:31:51;2.60;;;2.10;;
34585;SDS011;20816;50.950;11.108;2023-04-25T02:34:18;4.77;;;2.00;;
34585;SDS011;20816;50.950;11.108;2023-04-25T02:36:44;4.73;;;2.60;;
34585;SDS011;20816;50.950;11.108;2023-04-25T02:39:11;2.57;;;1.70;;
34585;SDS011;20816;50.950;11.108;2023-04-25T02:41:38;3.50;;;1.90;;
34585;SDS011;20816;50.950;11.108;2023-04-25T02:44:04;4.83;;;3.77;;
34585;SDS011;20816;50.950;11.108;2023-04-25T02:46:31;5.27;;;2.27;;
34585;SDS011;20816;50.950;11.108;2023-04-25T02:49:03;6.43;;;2.40;;
34585;SDS011;20816;50.950;11.108;2023-04-25T02:51:30;4.80;;;2.67;;
34585;SDS011;20816;50.950;11.108;2023-04-25T02:53:56;2.73;;;1.80;;
34585;SDS011;20816;50.950;11.108;2023-04-25T02:56:23;3.43;;;1.83;;
34585;SDS011;20816;50.950;11.108;2023-04-25T02:58:52;2.97;;;2.33;;
34585;SDS011;20816;50.950;11.108;2023-04-25T03:01:20;2.00;;;1.63;;
34585;SDS011;20816;50.950;11.108;2023-04-25T03:03:47;3.97;;;1.67;;
34585;SDS011;20816;50.950;11.108;2023-04-25T03:06:14;2.13;;;1.67;;
34585;SDS011;20816;50.950;11.108;2023-04-25T03:08:42;1.97;;;1.63;;
34585;SDS011;20816;50.950;11.108;2023-04-25T03:11:09;3.07;;;1.87;;
34585;SDS011;20816;50.950;11.108;2023-04-25T03:13:36;3.43;;;2.17;;
34585;SDS011;20816;50.950;11.108;2023-04-25T03:16:03;3.87;;;1.90;;
34585;SDS011;20816;50.950;11.108;2023-04-25T03:18:30;3.17;;;2.07;;
34585;SDS011;20816;50.950;11.108;2023-04-25T03:20:57;3.77;;;2.00;;
34585;SDS011;20816;50.950;11.108;2023-04-25T03:23:24;2.23;;;1.70;;
34585;SDS011;20816;50.950;11.108;2023-04-25T03:25:50;4.53;;;2.00;;
34585;SDS011;20816;50.950;11.108;2023-04-25T03:28:17;2.87;;;1.83;;
34585;SDS011;20816;50.950;11.108;2023-04-25T03:30:44;4.03;;;2.30;;
34585;SDS011;20816;50.950;11.108;2023-04-25T03:33:11;5.83;;;2.83;;
34585;SDS011;20816;50.950;11.108;2023-04-25T03:35:37;8.47;;;2.73;;
34585;SDS011;20816;50.950;11.108;2023-04-25T03:38:04;8.20;;;4.20;;
34585;SDS011;20816;50.950;11.108;2023-04-25T03:40:31;6.63;;;4.43;;
34585;SDS011;20816;50.950;11.108;2023-04-25T03:42:57;6.37;;;3.10;;
34585;SDS011;20816;50.950;11.108;2023-04-25T03:45:24;4.30;;;2.63;;
34585;SDS011;20816;50.950;11.108;2023-04-25T03:47:51;6.10;;;3.07;;
34585;SDS011;20816;50.950;11.108;2023-04-25T03:50:18;4.87;;;3.07;;
34585;SDS011;20816;50.950;11.108;2023-04-25T03:52:44;5.30;;;3.00;;
34585;SDS011;20816;50.950;11.108;2023-04-25T03:55:11;4.93;;;2.87;;
34585;SDS011;20816;50.950;11.108;2023-04-25T03:57:37;5.40;;;2.47;;
34585;SDS011;20816;50.950;11.108;2023-04-25T04:00:04;3.70;;;2.40;;
34585;SDS011;20816;50.950;11.108;2023-04-25T04:02:32;5.47;;;2.23;;
34585;SDS011;20816;50.950;11.108;2023-04-25T04:05:01;3.70;;;2.53;;
34585;SDS011;20816;50.950;11.108;2023-04-25T04:07:29;4.23;;;3.00;;
34585;SDS011;20816;50.950;11.108;2023-04-25T04:09:56;5.23;;;3.67;;
34585;SDS011;20816;50.950;11.108;2023-04-25T04:12:22;4.43;;;3.03;;
34585;SDS011;20816;50.950;11.108;2023-04-25T04:14:49;3.97;;;2.10;;
34585;SDS011;20816;50.950;11.108;2023-04-25T04:17:16;11.50;;;2.57;;
34585;SDS011;20816;50.950;11.108;2023-04-25T04:19:43;3.13;;;2.20;;
34585;SDS011;20816;50.950;11.108;2023-04-25T04:22:09;6.47;;;3.27;;
34585;SDS011;20816;50.950;11.108;2023-04-25T04:24:36;3.33;;;2.10;;
34585;SDS011;20816;50.950;11.108;2023-04-25T04:27:03;4.87;;;2.50;;
34585;SDS011;20816;50.950;11.108;2023-04-25T04:29:30;5.93;;;2.73;;
34585;SDS011;20816;50.950;11.108;2023-04-25T04:31:57;3.07;;;2.07;;
34585;SDS011;20816;50.950;11.108;2023-04-25T04:34:24;5.23;;;2.43;;
34585;SDS011;20816;50.950;11.108;2023-04-25T04:36:52;5.30;;;3.27;;
34585;SDS011;20816;50.950;11.108;2023-04-25T04:39:18;3.30;;;2.63;;
34585;SDS011;20816;50.950;11.108;2023-04-25T04:41:45;5.13;;;2.87;;
34585;SDS011;20816;50.950;11.108;2023-04-25T04:44:12;6.43;;;2.60;;
34585;SDS011;20816;50.950;11.108;2023-04-25T04:46:41;4.63;;;2.20;;
34585;SDS011;20816;50.950;11.108;2023-04-25T04:49:10;3.13;;;2.20;;
34585;SDS011;20816;50.950;11.108;2023-04-25T04:51:38;3.60;;;2.10;;
34585;SDS011;20816;50.950;11.108;2023-04-25T04:54:06;3.43;;;2.30;;
34585;SDS011;20816;50.950;11.108;2023-04-25T04:56:33;4.83;;;1.90;;
34585;SDS011;20816;50.950;11.108;2023-04-25T04:59:00;4.63;;;2.10;;
34585;SDS011;20816;50.950;11.108;2023-04-25T05:01:28;4.40;;;1.83;;
34585;SDS011;20816;50.950;11.108;2023-04-25T05:03:56;5.33;;;2.57;;
34585;SDS011;20816;50.950;11.108;2023-04-25T05:06:27;3.40;;;2.27;;
34585;SDS011;20816;50.950;11.108;2023-04-25T05:08:57;1.50;;;1.40;;
34585;SDS011;20816;50.950;11.108;2023-04-25T05:11:26;3.93;;;1.90;;
34585;SDS011;20816;50.950;11.108;2023-04-25T05:13:53;2.77;;;2.30;;
34585;SDS011;20816;50.950;11.108;2023-04-25T05:16:20;5.00;;;2.63;;
34585;SDS011;20816;50.950;11.108;2023-04-25T05:18:47;3.53;;;2.43;;
34585;SDS011;20816;50.950;11.108;2023-04-25T05:21:14;9.67;;;2.73;;
34585;SDS011;20816;50.950;11.108;2023-04-25T05:23:40;4.40;;;2.77;;
34585;SDS011;20816;50.950;11.108;2023-04-25T05:26:07;2.07;;;1.80;;
34585;SDS011;20816;50.950;11.108;2023-04-25T05:28:40;5.43;;;1.70;;
34585;SDS011;20816;50.950;11.108;2023-04-25T05:31:09;2.43;;;1.70;;
34585;SDS011;20816;50.950;11.108;2023-04-25T05:33:36;3.60;;;2.23;;
34585;SDS011;20816;50.950;11.108;2023-04-25T05:36:03;2.20;;;1.83;;
34585;SDS011;20816;50.950;11.108;2023-04-25T05:38:30;2.73;;;1.77;;
34585;SDS011;20816;50.950;11.108;2023-04-25T05:40:59;4.63;;;2.43;;
34585;SDS011;20816;50.950;11.108;2023-04-25T05:43:26;4.73;;;1.90;;
34585;SDS011;20816;50.950;11.108;2023-04-25T05:45:53;3.10;;;1.37;;
34585;SDS011;20816;50.950;11.108;2023-04-25T05:48:20;4.17;;;2.53;;
34585;SDS011;20816;50.950;11.108;2023-04-25T05:50:46;4.33;;;2.37;;
34585;SDS011;20816;50.950;11.108;2023-04-25T05:53:13;3.70;;;2.57;;
34585;SDS011;20816;50.950;11.108;2023-04-25T05:55:40;2.77;;;2.27;;
34585;SDS011;20816;50.950;11.108;2023-04-25T05:58:06;4.67;;;2.00;;
34585;SDS011;20816;50.950;11.108;2023-04-25T06:00:33;5.33;;;2.97;;
34585;SDS011;20816;50.950;11.108;2023-04-25T06:03:00;7.23;;;2.13;;
34585;SDS011;20816;50.950;11.108;2023-04-25T06:05:27;4.80;;;2.10;;
34585;SDS011;20816;50.950;11.108;2023-04-25T06:07:55;2.50;;;1.80;;
34585;SDS011;20816;50.950;11.108;2023-04-25T06:10:21;2.60;;;1.60;;
34585;SDS011;20816;50.950;11.108;2023-04-25T06:12:48;5.97;;;1.47;;
34585;SDS011;20816;50.950;11.108;2023-04-25T06:15:15;3.90;;;1.80;;
34585;SDS011;20816;50.950;11.108;2023-04-25T06:17:54;3.50;;;2.07;;
34585;SDS011;20816;50.950;11.108;2023-04-25T06:20:21;2.50;;;1.83;;
34585;SDS011;20816;50.950;11.108;2023-04-25T06:22:50;4.43;;;1.33;;
34585;SDS011;20816;50.950;11.108;2023-04-25T06:25:18;3.43;;;1.87;;
34585;SDS011;20816;50.950;11.108;2023-04-25T06:27:44;3.03;;;1.80;;
34585;SDS011;20816;50.950;11.108;2023-04-25T06:30:11;1.70;;;1.47;;
34585;SDS011;20816;50.950;11.108;2023-04-25T06:32:38;3.37;;;1.77;;
34585;SDS011;20816;50.950;11.108;2023-04-25T06:35:05;1.90;;;1.57;;
34585;SDS011;20816;50.950;11.108;2023-04-25T06:37:32;5.27;;;2.47;;
34585;SDS011;20816;50.950;11.108;2023-04-25T06:39:59;2.73;;;1.57;;
34585;SDS011;20816;50.950;11.108;2023-04-25T06:42:25;2.63;;;1.83;;
34585;SDS011;20816;50.950;11.108;2023-04-25T06:44:52;3.47;;;1.23;;
34585;SDS011;20816;50.950;11.108;2023-04-25T06:47:19;1.27;;;1.10;;
34585;SDS011;20816;50.950;11.108;2023-04-25T06:49:46;2.80;;;1.73;;
34585;SDS011;20816;50.950;11.108;2023-04-25T06:52:12;3.27;;;1.87;;
34585;SDS011;20816;50.950;11.108;2023-04-25T06:54:39;2.17;;;1.53;;
34585;SDS011;20816;50.950;11.108;2023-04-25T06:57:06;4.87;;;2.00;;
34585;SDS011;20816;50.950;11.108;2023-04-25T06:59:32;3.80;;;1.47;;
34585;SDS011;20816;50.950;11.108;2023-04-25T07:01:59;3.20;;;1.43;;
34585;SDS011;20816;50.950;11.108;2023-04-25T07:04:26;2.43;;;1.20;;
34585;SDS011;20816;50.950;11.108;2023-04-25T07:06:53;5.83;;;1.20;;
34585;SDS011;20816;50.950;11.108;2023-04-25T07:09:21;2.67;;;1.63;;
34585;SDS011;20816;50.950;11.108;2023-04-25T07:11:48;2.70;;;1.43;;
34585;SDS011;20816;50.950;11.108;2023-04-25T07:14:14;3.67;;;1.27;;
34585;SDS011;20816;50.950;11.108;2023-04-25T07:16:41;2.63;;;1.73;;
34585;SDS011;20816;50.950;11.108;2023-04-25T07:19:08;2.13;;;1.20;;
34585;SDS011;20816;50.950;11.108;2023-04-25T07:21:35;3.43;;;1.53;;
34585;SDS011;20816;50.950;11.108;2023-04-25T07:24:02;2.70;;;1.33;;
34585;SDS011;20816;50.950;11.108;2023-04-25T07:26:29;2.47;;;1.53;;
34585;SDS011;20816;50.950;11.108;2023-04-25T07:28:56;6.50;;;1.17;;
34585;SDS011;20816;50.950;11.108;2023-04-25T07:31:23;1.80;;;1.37;;
34585;SDS011;20816;50.950;11.108;2023-04-25T07:33:49;1.50;;;1.30;;
34585;SDS011;20816;50.950;11.108;2023-04-25T07:36:16;2.00;;;1.40;;
34585;SDS011;20816;50.950;11.108;2023-04-25T07:38:43;1.40;;;1.20;;
34585;SDS011;20816;50.950;11.108;2023-04-25T07:41:10;2.80;;;1.60;;
34585;SDS011;20816;50.950;11.108;2023-04-25T07:43:36;3.00;;;1.57;;
34585;SDS011;20816;50.950;11.108;2023-04-25T07:46:03;1.13;;;1.03;;
34585;SDS011;20816;50.950;11.108;2023-04-25T07:48:30;2.70;;;1.30;;
34585;SDS011;20816;50.950;11.108;2023-04-25T07:50:57;1.23;;;1.10;;
34585;SDS011;20816;50.950;11.108;2023-04-25T07:53:24;1.40;;;1.07;;
34585;SDS011;20816;50.950;11.108;2023-04-25T07:55:51;6.03;;;1.60;;
34585;SDS011;20816;50.950;11.108;2023-04-25T07:58:17;2.00;;;1.80;;
34585;SDS011;20816;50.950;11.108;2023-04-25T08:00:48;3.87;;;1.30;;
34585;SDS011;20816;50.950;11.108;2023-04-25T08:03:15;4.80;;;1.80;;
34585;SDS011;20816;50.950;11.108;2023-04-25T08:05:42;3.67;;;1.53;;
34585;SDS011;20816;50.950;11.108;2023-04-25T08:08:09;1.63;;;1.10;;
34585;SDS011;20816;50.950;11.108;2023-04-25T08:10:36;2.30;;;1.80;;
34585;SDS011;20816;50.950;11.108;2023-04-25T08:13:02;2.23;;;1.60;;
34585;SDS011;20816;50.950;11.108;2023-04-25T08:15:29;7.63;;;1.40;;
34585;SDS011;20816;50.950;11.108;2023-04-25T08:17:56;3.03;;;1.93;;
34585;SDS011;20816;50.950;11.108;2023-04-25T08:20:23;1.20;;;1.10;;
34585;SDS011;20816;50.950;11.108;2023-04-25T08:22:49;1.90;;;1.53;;
34585;SDS011;20816;50.950;11.108;2023-04-25T08:25:16;2.13;;;1.40;;
34585;SDS011;20816;50.950;11.108;2023-04-25T08:27:43;2.83;;;1.17;;
34585;SDS011;20816;50.950;11.108;2023-04-25T08:30:10;2.13;;;1.10;;
34585;SDS011;20816;50.950;11.108;2023-04-25T08:32:37;3.17;;;1.33;;
34585;SDS011;20816;50.950;11.108;2023-04-25T08:35:06;0.67;;;0.67;;
34585;SDS011;20816;50.950;11.108;2023-04-25T08:37:33;1.50;;;1.00;;
34585;SDS011;20816;50.950;11.108;2023-04-25T08:40:01;3.33;;;1.40;;
34585;SDS011;20816;50.950;11.108;2023-04-25T08:42:29;4.97;;;1.80;;
34585;SDS011;20816;50.950;11.108;2023-04-25T08:44:57;1.10;;;1.00;;
34585;SDS011;20816;50.950;11.108;2023-04-25T08:47:29;3.30;;;1.50;;
34585;SDS011;20816;50.950;11.108;2023-04-25T08:49:56;2.57;;;1.37;;
34585;SDS011;20816;50.950;11.108;2023-04-25T08:52:27;1.50;;;1.00;;
34585;SDS011;20816;50.950;11.108;2023-04-25T08:54:56;4.10;;;1.73;;
34585;SDS011;20816;50.950;11.108;2023-04-25T08:57:23;2.13;;;1.83;;
34585;SDS011;20816;50.950;11.108;2023-04-25T08:59:51;3.60;;;1.67;;
34585;SDS011;20816;50.950;11.108;2023-04-25T09:02:19;2.07;;;1.47;;
34585;SDS011;20816;50.950;11.108;2023-04-25T09:04:47;3.93;;;2.00;;
34585;SDS011;20816;50.950;11.108;2023-04-25T09:07:15;2.23;;;1.60;;
34585;SDS011;20816;50.950;11.108;2023-04-25T09:09:44;1.93;;;1.43;;
34585;SDS011;20816;50.950;11.108;2023-04-25T09:12:11;2.27;;;1.93;;
34585;SDS011;20816;50.950;11.108;2023-04-25T09:14:38;1.73;;;1.50;;
34585;SDS011;20816;50.950;11.108;2023-04-25T09:17:05;2.97;;;1.40;;
34585;SDS011;20816;50.950;11.108;2023-04-25T09:19:34;1.47;;;1.33;;
34585;SDS011;20816;50.950;11.108;2023-04-25T09:22:07;1.53;;;1.03;;
34585;SDS011;20816;50.950;11.108;2023-04-25T09:24:34;2.37;;;1.60;;
34585;SDS011;20816;50.950;11.108;2023-04-25T09:27:05;6.90;;;1.40;;
34585;SDS011;20816;50.950;11.108;2023-04-25T09:29:40;3.23;;;1.30;;
34585;SDS011;20816;50.950;11.108;2023-04-25T09:34:49;2.07;;;1.70;;
34585;SDS011;20816;50.950;11.108;2023-04-25T09:37:24;5.80;;;1.90;;
34585;SDS011;20816;50.950;11.108;2023-04-25T09:39:56;5.33;;;1.03;;
34585;SDS011;20816;50.950;11.108;2023-04-25T09:42:25;3.33;;;1.20;;
34585;SDS011;20816;50.950;11.108;2023-04-25T09:44:56;4.77;;;1.57;;
34585;SDS011;20816;50.950;11.108;2023-04-25T09:47:23;2.60;;;1.10;;
34585;SDS011;20816;50.950;11.108;2023-04-25T09:49:52;6.80;;;1.50;;
34585;SDS011;20816;50.950;11.108;2023-04-25T09:52:21;9.33;;;1.60;;
34585;SDS011;20816;50.950;11.108;2023-04-25T09:54:51;4.03;;;2.10;;
34585;SDS011;20816;50.950;11.108;2023-04-25T09:57:19;3.23;;;1.53;;
34585;SDS011;20816;50.950;11.108;2023-04-25T09:59:48;2.97;;;1.33;;
34585;SDS011;20816;50.950;11.108;2023-04-25T10:02:17;3.80;;;1.60;;
34585;SDS011;20816;50.950;11.108;2023-04-25T10:04:50;3.53;;;1.27;;
34585;SDS011;20816;50.950;11.108;2023-04-25T10:07:22;7.70;;;2.27;;
34585;SDS011;20816;50.950;11.108;2023-04-25T10:09:59;3.13;;;1.20;;
34585;SDS011;20816;50.950;11.108;2023-04-25T10:12:30;5.70;;;1.57;;
34585;SDS011;20816;50.950;11.108;2023-04-25T10:14:59;3.73;;;1.20;;
34585;SDS011;20816;50.950;11.108;2023-04-25T10:17:27;6.57;;;1.63;;
34585;SDS011;20816;50.950;11.108;2023-04-25T10:19:54;9.23;;;1.77;;
34585;SDS011;20816;50.950;11.108;2023-04-25T10:22:32;6.53;;;2.60;;
34585;SDS011;20816;50.950;11.108;2023-04-25T10:25:01;3.83;;;2.03;;
34585;SDS011;20816;50.950;11.108;2023-04-25T10:27:30;11.13;;;1.80;;
34585;SDS011;20816;50.950;11.108;2023-04-25T10:32:31;8.63;;;1.93;;
34585;SDS011;20816;50.950;11.108;2023-04-25T10:35:47;7.87;;;1.93;;
34585;SDS011;20816;50.950;11.108;2023-04-25T10:37:59;2.37;;;1.37;;
34585;SDS011;20816;50.950;11.108;2023-04-25T10:40:29;3.47;;;1.70;;
34585;SDS011;20816;50.950;11.108;2023-04-25T10:42:56;1.30;;;0.67;;
34585;SDS011;20816;50.950;11.108;2023-04-25T10:46:00;4.33;;;2.10;;
34585;SDS011;20816;50.950;11.108;2023-04-25T10:48:28;3.17;;;1.30;;
34585;SDS011;20816;50.950;11.108;2023-04-25T10:53:36;3.53;;;2.00;;
34585;SDS011;20816;50.950;11.108;2023-04-25T10:56:18;2.17;;;1.30;;
34585;SDS011;20816;50.950;11.108;2023-04-25T10:58:47;6.57;;;1.70;;
34585;SDS011;20816;50.950;11.108;2023-04-25T11:01:21;5.60;;;1.87;;
34585;SDS011;20816;50.950;11.108;2023-04-25T11:03:56;5.90;;;3.17;;
34585;SDS011;20816;50.950;11.108;2023-04-25T11:06:44;7.53;;;1.37;;
34585;SDS011;20816;50.950;11.108;2023-04-25T11:09:35;8.60;;;1.40;;
34585;SDS011;20816;50.950;11.108;2023-04-25T11:12:02;4.83;;;1.10;;
34585;SDS011;20816;50.950;11.108;2023-04-25T11:14:29;6.03;;;1.10;;
34585;SDS011;20816;50.950;11.108;2023-04-25T11:16:57;5.77;;;1.80;;
34585;SDS011;20816;50.950;11.108;2023-04-25T11:19:26;4.87;;;1.70;;
34585;SDS011;20816;50.950;11.108;2023-04-25T11:21:57;7.07;;;3.37;;
34585;SDS011;20816;50.950;11.108;2023-04-25T11:24:26;7.33;;;2.30;;
34585;SDS011;20816;50.950;11.108;2023-04-25T11:26:54;3.97;;;1.43;;
34585;SDS011;20816;50.950;11.108;2023-04-25T11:29:22;10.07;;;1.63;;
34585;SDS011;20816;50.950;11.108;2023-04-25T11:31:50;4.17;;;1.10;;
34585;SDS011;20816;50.950;11.108;2023-04-25T11:34:20;2.97;;;1.43;;
34585;SDS011;20816;50.950;11.108;2023-04-25T11:36:46;2.20;;;1.30;;
34585;SDS011;20816;50.950;11.108;2023-04-25T11:39:13;3.97;;;1.43;;
34585;SDS011;20816;50.950;11.108;2023-04-25T11:41:41;4.23;;;1.10;;
34585;SDS011;20816;50.950;11.108;2023-04-25T11:44:11;3.00;;;0.93;;
34585;SDS011;20816;50.950;11.108;2023-04-25T11:46:38;3.70;;;1.80;;
34585;SDS011;20816;50.950;11.108;2023-04-25T11:49:05;2.97;;;2.07;;
34585;SDS011;20816;50.950;11.108;2023-04-25T11:51:41;2.23;;;0.93;;
34585;SDS011;20816;50.950;11.108;2023-04-25T11:54:12;2.17;;;1.10;;
34585;SDS011;20816;50.950;11.108;2023-04-25T11:56:45;5.27;;;1.30;;
34585;SDS011;20816;50.950;11.108;2023-04-25T11:59:13;2.77;;;1.00;;
34585;SDS011;20816;50.950;11.108;2023-04-25T12:01:40;3.77;;;1.30;;
34585;SDS011;20816;50.950;11.108;2023-04-25T12:04:18;4.07;;;1.33;;
34585;SDS011;20816;50.950;11.108;2023-04-25T12:06:45;7.30;;;1.93;;
34585;SDS011;20816;50.950;11.108;2023-04-25T12:09:15;2.03;;;0.90;;
34585;SDS011;20816;50.950;11.108;2023-04-25T12:11:48;4.87;;;1.87;;
34585;SDS011;20816;50.950;11.108;2023-04-25T12:14:22;1.80;;;0.90;;
34585;SDS011;20816;50.950;11.108;2023-04-25T12:16:58;4.70;;;2.00;;
34585;SDS011;20816;50.950;11.108;2023-04-25T12:19:31;7.53;;;0.83;;
34585;SDS011;20816;50.950;11.108;2023-04-25T12:22:03;4.30;;;1.27;;
34585;SDS011;20816;50.950;11.108;2023-04-25T12:24:46;2.37;;;1.30;;
34585;SDS011;20816;50.950;11.108;2023-04-25T12:27:14;4.10;;;1.53;;
34585;SDS011;20816;50.950;11.108;2023-04-25T12:29:53;4.63;;;1.40;;
34585;SDS011;20816;50.950;11.108;2023-04-25T12:32:22;1.30;;;1.20;;
34585;SDS011;20816;50.950;11.108;2023-04-25T12:34:49;3.53;;;1.60;;
34585;SDS011;20816;50.950;11.108;2023-04-25T12:37:16;2.33;;;1.10;;
34585;SDS011;20816;50.950;11.108;2023-04-25T12:39:42;1.97;;;1.37;;
34585;SDS011;20816;50.950;11.108;2023-04-25T12:42:09;1.17;;;0.70;;
34585;SDS011;20816;50.950;11.108;2023-04-25T12:44:39;5.37;;;1.00;;
34585;SDS011;20816;50.950;11.108;2023-04-25T12:47:06;0.80;;;0.70;;
34585;SDS011;20816;50.950;11.108;2023-04-25T12:49:34;4.20;;;1.10;;
34585;SDS011;20816;50.950;11.108;2023-04-25T12:52:01;1.53;;;0.80;;
34585;SDS011;20816;50.950;11.108;2023-04-25T12:54:28;3.10;;;1.10;;
34585;SDS011;20816;50.950;11.108;2023-04-25T12:56:55;1.40;;;1.00;;
34585;SDS011;20816;50.950;11.108;2023-04-25T12:59:21;6.17;;;0.80;;
34585;SDS011;20816;50.950;11.108;2023-04-25T13:01:48;1.53;;;0.90;;
34585;SDS011;20816;50.950;11.108;2023-04-25T13:04:16;1.93;;;0.83;;
34585;SDS011;20816;50.950;11.108;2023-04-25T13:06:43;2.50;;;1.10;;
34585;SDS011;20816;50.950;11.108;2023-04-25T13:09:09;4.60;;;1.10;;
34585;SDS011;20816;50.950;11.108;2023-04-25T13:11:39;3.53;;;1.13;;
34585;SDS011;20816;50.950;11.108;2023-04-25T13:14:07;4.57;;;2.10;;
34585;SDS011;20816;50.950;11.108;2023-04-25T13:16:34;2.57;;;1.20;;
34585;SDS011;20816;50.950;11.108;2023-04-25T13:19:01;10.13;;;1.80;;
34585;SDS011;20816;50.950;11.108;2023-04-25T13:21:29;1.33;;;0.90;;
34585;SDS011;20816;50.950;11.108;2023-04-25T13:23:58;2.73;;;1.10;;
34585;SDS011;20816;50.950;11.108;2023-04-25T13:26:25;2.10;;;0.97;;
34585;SDS011;20816;50.950;11.108;2023-04-25T13:28:52;3.23;;;1.03;;
34585;SDS011;20816;50.950;11.108;2023-04-25T13:31:18;1.73;;;0.80;;
34585;SDS011;20816;50.950;11.108;2023-04-25T13:33:45;1.57;;;0.57;;
34585;SDS011;20816;50.950;11.108;2023-04-25T13:36:12;5.03;;;0.83;;
34585;SDS011;20816;50.950;11.108;2023-04-25T13:38:39;3.10;;;2.30;;
34585;SDS011;20816;50.950;11.108;2023-04-25T13:41:08;6.63;;;2.10;;
34585;SDS011;20816;50.950;11.108;2023-04-25T13:43:37;1.23;;;0.53;;
34585;SDS011;20816;50.950;11.108;2023-04-25T13:46:04;7.43;;;0.97;;
34585;SDS011;20816;50.950;11.108;2023-04-25T13:48:31;7.33;;;0.70;;
34585;SDS011;20816;50.950;11.108;2023-04-25T13:50:58;3.70;;;1.10;;
34585;SDS011;20816;50.950;11.108;2023-04-25T13:53:24;3.27;;;0.70;;
34585;SDS011;20816;50.950;11.108;2023-04-25T13:55:51;1.67;;;0.93;;
34585;SDS011;20816;50.950;11.108;2023-04-25T13:58:18;3.23;;;0.80;;
34585;SDS011;20816;50.950;11.108;2023-04-25T14:00:46;1.73;;;0.83;;
34585;SDS011;20816;50.950;11.108;2023-04-25T14:03:13;3.30;;;0.90;;
34585;SDS011;20816;50.950;11.108;2023-04-25T14:05:40;1.90;;;0.80;;
34585;SDS011;20816;50.950;11.108;2023-04-25T14:08:07;6.70;;;1.07;;
34585;SDS011;20816;50.950;11.108;2023-04-25T14:10:36;3.23;;;0.60;;
34585;SDS011;20816;50.950;11.108;2023-04-25T14:13:04;2.50;;;1.10;;
34585;SDS011;20816;50.950;11.108;2023-04-25T14:15:31;3.67;;;0.90;;
34585;SDS011;20816;50.950;11.108;2023-04-25T14:17:59;0.80;;;0.70;;
34585;SDS011;20816;50.950;11.108;2023-04-25T14:20:26;1.27;;;0.70;;
34585;SDS011;20816;50.950;11.108;2023-04-25T14:22:53;3.93;;;0.90;;
34585;SDS011;20816;50.950;11.108;2023-04-25T14:25:22;0.60;;;0.60;;
34585;SDS011;20816;50.950;11.108;2023-04-25T14:27:49;1.40;;;0.80;;
34585;SDS011;20816;50.950;11.108;2023-04-25T14:30:17;1.60;;;1.00;;
34585;SDS011;20816;50.950;11.108;2023-04-25T14:32:45;3.00;;;1.20;;
34585;SDS011;20816;50.950;11.108;2023-04-25T14:35:12;4.33;;;0.93;;
34585;SDS011;20816;50.950;11.108;2023-04-25T14:37:39;5.80;;;0.83;;
34585;SDS011;20816;50.950;11.108;2023-04-25T14:40:07;5.93;;;0.80;;
34585;SDS011;20816;50.950;11.108;2023-04-25T14:42:39;1.43;;;0.80;;
34585;SDS011;20816;50.950;11.108;2023-04-25T14:45:07;4.03;;;0.80;;
34585;SDS011;20816;50.950;11.108;2023-04-25T14:47:35;1.07;;;0.80;;